ADDS TAF Data INFO
IDs: Format: Raw Decoded Include METARs

Data at: 0326 UTC 23 May 2018

Region: TOP
KATL 230200Z 2302/2406 16005KT P6SM VCSH SCT008 BKN015 BKN050
  FM230400 15004KT P6SM SCT006 BKN012
  FM230700 16004KT 5SM BR OVC006
  FM231500 19004KT P6SM VCSH BKN012
  FM231800 20006KT 6SM -SHRA BKN025 OVC050


KBOS 230223Z 2302/2406 19007KT P6SM VCSH SCT025 OVC040
  FM230400 19006KT P6SM BKN025
  FM230700 21005KT 6SM BR BKN015
  FM231100 26006KT 6SM BR BKN040
  FM231300 29006KT P6SM SCT120
  FM231700 04006KT P6SM FEW250


KBWI 230243Z 2303/2406 VRB03KT 4SM BR OVC008
  FM230700 VRB03KT 2SM BR BKN008 OVC015
  FM231300 30007KT P6SM BKN035
  FM231700 33010G16KT P6SM SCT040


KCLE 230255Z 2303/2406 34012KT P6SM OVC004
  FM230900 VRB03KT P6SM SKC
  FM231500 32005KT P6SM SKC


KCLT 222330Z 2300/2406 22007KT P6SM VCSH SCT050 BKN100
  FM230300 20005KT P6SM BKN050
  FM230900 21004KT P6SM SCT007 BKN015
  FM231300 23005KT P6SM BKN025
  FM231700 24006KT P6SM VCSH SCT035 BKN150
  PROB30 2321/2403 4SM -TSRA OVC025CB


KCVG 230106Z 2301/2406 VRB05KT P6SM VCTS SCT060CB
  FM230200 36005KT P6SM SCT100
  FM230800 VRB03KT 4SM BR SCT015
  FM231300 03006KT P6SM SCT040
  FM240000 VRB03KT P6SM SCT250


KDCA 230238Z 2303/2406 VRB03KT P6SM BKN008
  FM230600 VRB03KT 5SM BR BKN008
  FM230900 VRB03KT 3SM BR SCT008
  FM231200 28006KT P6SM BKN035
  FM231600 33010G16KT P6SM SCT040
  FM240000 VRB03KT P6SM FEW250


KDEN 230217Z 2302/2406 33014G22KT P6SM VCSH SCT100 BKN160
  FM230400 17014KT P6SM SCT090 SCT140 BKN200
  FM230800 21010KT P6SM FEW140
  FM232000 16014G22KT P6SM SCT120
  FM240200 22010KT P6SM SCT120 BKN200


KDFW 230303Z 2303/2406 16009KT P6SM BKN300
  FM231200 16007KT P6SM SCT025 SCT050


KDTW 230253Z 2303/2406 33005KT P6SM SKC
  FM230900 VRB03KT 3SM BR SKC
  FM231300 34005KT P6SM SKC
  FM232200 03006KT P6SM SKC


KEWR 230325Z 2303/2406 VRB04KT 6SM BR OVC006
  FM230500 VRB04KT 3SM BR VCTS OVC005CB
  FM230700 VRB04KT 2SM BR VCSH BKN005 OVC015
  FM231200 28004KT 4SM BR SCT015 BKN040
  TEMPO 2312/2314 BKN015
  FM231400 33008KT P6SM SCT020 SCT090
  FM231600 33010KT P6SM FEW040 SCT100
  FM231800 32010KT P6SM FEW050
  FM240000 29007KT P6SM SKC


KFLL 230307Z 2303/2406 11010KT P6SM FEW020 SCT120
  FM231200 11012KT P6SM VCSH SCT030 BKN050 BKN120
  FM231700 12015KT P6SM SCT025 SCT040 BKN110
  FM240300 13006KT P6SM FEW025 SCT060 BKN120


KIAD 230239Z 2303/2406 VRB03KT P6SM SCT008 BKN100
  TEMPO 2303/2306 BKN008
  FM230600 VRB03KT 4SM BR BKN008 BKN025
  FM230900 VRB03KT 2SM BR BKN008
  FM231200 30008KT P6SM BKN035
  FM231600 33010G16KT P6SM SCT040
  FM240000 VRB03KT P6SM FEW250


KIAH 230300Z 2303/2406 15003KT P6SM FEW035 SCT250
  FM230900 09004KT P6SM SCT020 SCT250
  FM231900 12006KT P6SM VCSH SCT035
  FM232200 14009KT P6SM VCTS SCT040CB
  FM240200 14004KT P6SM BKN250


KJFK 230325Z 2303/2406 VRB03KT 6SM BR OVC006
  FM230600 VRB04KT 4SM BR VCTS OVC005CB
  FM230800 VRB03KT 2SM BR VCSH BKN005 OVC015
  FM231200 23004KT 4SM BR SCT015 BKN040
  TEMPO 2312/2314 BKN015
  FM231400 32008KT P6SM SCT020 SCT090
  FM231600 32011KT P6SM FEW040 SCT100
  FM231800 32011KT P6SM FEW050
  FM240000 30007KT P6SM SKC


KLAS 230239Z 2303/2406 VRB06KT P6SM FEW120 SCT150
  FM230600 23008KT P6SM FEW120 SCT180
  FM231200 VRB05KT P6SM FEW180
  FM231800 11008KT P6SM SKC
  FM232000 14010G19KT P6SM SKC
  FM240400 20009KT P6SM SKC


KLAX 230237Z 2303/2406 27012KT P6SM FEW040
  FM230700 VRB04KT P6SM OVC025
  FM231500 18008KT P6SM OVC015
  FM231800 25007KT P6SM BKN015 BKN035
  FM232200 26012KT P6SM SCT035
  FM240300 26010KT P6SM SCT050


KLGA 230325Z 2303/2406 VRB04KT 6SM BR OVC006
  FM230600 VRB04KT 3SM BR VCTS OVC005CB
  FM230800 VRB04KT 2SM BR VCSH BKN005 OVC015
  FM231200 23004KT 4SM BR SCT015 BKN040
  TEMPO 2312/2314 BKN015
  FM231400 33008KT P6SM SCT020 SCT090
  FM231600 33010KT P6SM FEW040 SCT100
  FM231800 32010KT P6SM FEW050
  FM240000 30007KT P6SM SKC


KMCO 230300Z 2303/2406 12005KT P6SM FEW030 SCT080 SCT140
  FM231400 13006KT P6SM SCT025 SCT100 BKN250
  FM231800 10009KT P6SM VCSH BKN035 BKN050
  TEMPO 2319/2322 3SM SHRA BKN025


KMDW 230322Z 2303/2406 09004KT P6SM BKN035
  FM230700 VRB02KT 5SM BR BCFG SCT004
  TEMPO 2309/2312 2SM BR MIFG OVC004
  FM231300 VRB03KT P6SM FEW300
  FM231800 07007KT P6SM SCT250
  TEMPO 2318/2320 08011KT


KMEM 230258Z 2303/2406 VRB04KT P6SM SCT250
  TEMPO 2309/2313 3SM BR
  FM231500 06006KT P6SM SCT040
  FM232000 04006KT P6SM VCTS BKN040CB BKN150


KMIA 230307Z 2303/2406 11010KT P6SM VCSH FEW020 SCT250
  FM231300 12010KT P6SM VCSH SCT030 BKN050 BKN120
  FM231700 12012KT P6SM SCT025 SCT040 BKN110
  FM240300 11006KT P6SM FEW025 SCT060 BKN120


KMSP 230250Z 2303/2406 13006KT P6SM SCT250
  FM231000 VRB03KT P6SM BKN060
  FM231300 14008KT P6SM BKN040
  PROB30 2313/2318 4SM -TSRA BR BKN025CB


KORD 230322Z 2303/2406 09004KT P6SM BKN035
  FM230800 00000KT 5SM BR BCFG SCT003
  TEMPO 2309/2312 1 1/2SM BR MIFG OVC003
  FM231300 00000KT P6SM FEW300
  FM231800 08007KT P6SM SCT250
  TEMPO 2318/2320 08011KT


KPDX 230309Z 2303/2324 31009KT P6SM SKC
  FM230500 29006KT P6SM SKC
  FM231500 30005KT P6SM SCT015
  FM231900 25005KT P6SM SCT050 BKN080


KPHL 222320Z 2300/2406 VRB03KT P6SM OVC020
  TEMPO 2300/2303 6SM BR OVC015
  FM230300 VRB03KT 6SM BR VCSH OVC015
  TEMPO 2303/2306 4SM BR OVC007
  FM230600 VRB02KT 4SM BR OVC010
  TEMPO 2306/2309 OVC007
  FM231000 VRB03KT P6SM BKN010
  FM231400 33011KT P6SM SCT030
  FM240200 30006KT P6SM SKC


KPHX 230253Z 2303/2406 27010G20KT P6SM SKC
  FM230500 28006KT P6SM SKC
  FM230900 12005KT P6SM SKC
  FM231800 18010KT P6SM SKC


KPIT 230255Z 2303/2406 24005KT P6SM BKN100
  FM230600 28004KT P6SM BKN025
  FM231100 33006KT P6SM SCT010
  FM231600 33006KT P6SM SCT025


KSAN 230311Z 2303/2406 VRB04KT P6SM SCT020
  FM230500 VRB04KT P6SM OVC015
  FM231800 28008KT P6SM BKN020
  FM232100 29010KT P6SM SCT020
  FM240200 VRB04KT P6SM BKN015


KSEA 230300Z 2303/2406 34007KT P6SM SKC
  FM230700 VRB05KT P6SM SCT250
  FM231200 23005KT P6SM SCT250
  FM231900 25008KT P6SM SCT250


KSFO 230301Z 2303/2406 27011KT P6SM FEW004 BKN009 OVC018
  FM230600 24009KT P6SM FEW004 BKN010 OVC012
  FM231800 25008KT P6SM OVC012
  FM232100 27015KT P6SM SCT012 BKN015
  FM240300 24009KT P6SM FEW012 SCT015


KSLC 230240Z 2303/2406 11007KT P6SM VCSH BKN090 BKN110
  FM230330 15007KT P6SM FEW100 BKN150
  FM231700 17013G21KT P6SM SCT110 BKN150
  FM240300 15007KT P6SM SCT150


KSTL 230258Z 2303/2406 VRB04KT P6SM SCT250
  FM231400 10007KT P6SM FEW060


KTPA 230309Z 2303/2406 VRB03KT P6SM BKN070
  FM230600 VRB03KT P6SM SCT070 SCT250
  FM231400 14006KT P6SM SCT015 SCT250
  FM231700 22007KT P6SM VCTS SCT025CB BKN040
  FM232200 30008KT P6SM VCTS SCT030CB BKN060
  FM240200 VRB06KT P6SM SCT040 BKN100